Main page
METAR-TAF:

METAR-TAF

Airports :

Antonio B. Won Pat International Airport

Hagåtña, Guam, United States

latitude: 13-29N, longitude: 144-48E, elevation: 91 m

Current weather observation

The report was made 19 minutes ago, at 09:54 UTC
Wind 6 kt from the East/Northeast
Temperature 28°C
Humidity 84%
Pressure 1013 hPa
Visibility: 14.5 km
Clear sky

METAR: PGUM 230954Z 06006KT 9SM CLR 28/25 A2991 RMK AO2 SLP121 T02830250

Time: 20:13 (10:13 UTC)

Forecast

The report was made 4 hours and 53 minutes ago, at 05:20 UTC
Forecast valid from 23 at 06 UTC to 24 at 12 UTC
Wind 11 kt from the East
Visibility: 10 km
Few clouds at a height of 2500 ft
Scattered clouds at a height of 5000 ft
showers in vicinity

TAF: PGUM 230520Z 2306/2412 09011KT P6SM VCSH FEW025 SCT050

Weather observations and forecasts of more than 4000 airports (METAR and TAF reports).

The available stations are represented by yellow and red dots on the map.

Hover mouse over dot to see the name of the station.

Then click to see weather observations and forecasts.

To change the map : click on the green buttons with a black cross to zoom in, on the green button with a dash to zoom out, or on the green arrows for adjacent maps.


METAR-TAF: